Yuanling, China
Current Conditions -  °F | °C
As of 2:00 AM on Sunday 21 Dec 2014 (Local Time) from ZGHA Reporting Station
Haze Haze  
Wind Chill: 37°   Ceiling: Unl
Heat Index: 43°   Visibility: 2.5mi
Dew Point: 34°   Wind: 11mph
Humidity: 70%   Direction: 350°N
Pressure: 30.39"   Gusts: NA
Location:  28.47°N, 110.4°E
Report Text: ZGHA 201800Z 35005MPS 4000 BR NSC 06/01 Q1029 NOSIG
Loading
Personal Weather Stations






























Interactive Weather Map New forecast layout! Learn more

10-Day Weather Forecast

Advertisements
Track Severe Weather on mobile